createdAt,value
2022-12-24T00:00:39.316Z,5.90
2022-12-24T00:03:27.489Z,6.00
2022-12-24T00:05:58.553Z,6.00
2022-12-24T00:08:30.113Z,5.90
2022-12-24T00:11:01.855Z,6.00
2022-12-24T00:13:34.005Z,5.90
2022-12-24T00:16:05.492Z,5.90
2022-12-24T00:18:45.406Z,5.90
2022-12-24T00:21:18.142Z,5.90
2022-12-24T00:23:50.123Z,5.90
2022-12-24T00:26:21.593Z,5.90
2022-12-24T00:28:53.514Z,5.80
2022-12-24T00:31:24.824Z,5.80
2022-12-24T00:33:59.012Z,5.80
2022-12-24T00:36:30.229Z,5.80
2022-12-24T00:39:01.782Z,5.80
2022-12-24T00:41:34.316Z,5.80
2022-12-24T00:44:10.138Z,5.80
2022-12-24T00:46:42.703Z,5.80
2022-12-24T00:49:16.760Z,5.80
2022-12-24T00:51:47.660Z,5.80
2022-12-24T00:54:19.477Z,5.80
2022-12-24T00:56:50.287Z,5.80
2022-12-24T00:59:21.627Z,5.80
2022-12-24T01:01:52.551Z,5.80
2022-12-24T01:04:40.363Z,5.80
2022-12-24T01:07:11.725Z,5.80
2022-12-24T01:09:44.215Z,5.80
2022-12-24T01:12:16.471Z,5.80
2022-12-24T01:14:48.394Z,5.80
2022-12-24T01:17:19.701Z,5.80
2022-12-24T01:19:53.926Z,5.80
2022-12-24T01:22:25.121Z,5.80
2022-12-24T01:24:56.753Z,5.80
2022-12-24T01:27:27.543Z,5.80
2022-12-24T01:29:59.043Z,5.80
2022-12-24T01:32:31.431Z,5.80
2022-12-24T01:35:06.005Z,5.80
2022-12-24T01:37:37.045Z,5.80
2022-12-24T01:40:22.848Z,5.80
2022-12-24T01:43:08.322Z,5.80
2022-12-24T01:45:53.523Z,5.80
2022-12-24T01:48:30.489Z,5.80
2022-12-24T01:51:08.645Z,5.90
2022-12-24T01:53:42.700Z,5.90
2022-12-24T01:56:15.851Z,5.80
2022-12-24T01:58:51.112Z,5.80
2022-12-24T02:01:22.483Z,5.90
2022-12-24T02:03:54.638Z,5.80
2022-12-24T02:06:29.090Z,5.80
2022-12-24T02:09:00.497Z,5.80
2022-12-24T02:11:33.078Z,5.90
2022-12-24T02:14:05.652Z,5.80
2022-12-24T02:16:47.117Z,5.80
2022-12-24T02:19:44.685Z,5.80
2022-12-24T02:22:24.208Z,5.80
2022-12-24T02:25:24.587Z,5.80
2022-12-24T02:28:01.113Z,5.80
2022-12-24T02:30:39.821Z,5.80
2022-12-24T02:33:21.355Z,5.80
2022-12-24T02:35:56.214Z,5.80
2022-12-24T02:38:32.458Z,5.80
2022-12-24T02:41:08.995Z,5.80
2022-12-24T02:43:44.887Z,5.80
2022-12-24T02:46:22.938Z,5.80
2022-12-24T02:48:55.766Z,5.80
2022-12-24T02:51:28.021Z,5.80
2022-12-24T02:53:59.826Z,5.80
2022-12-24T02:56:51.542Z,5.60
2022-12-24T02:59:45.794Z,5.50
2022-12-24T03:02:29.398Z,5.40
2022-12-24T03:05:12.155Z,5.40
2022-12-24T03:07:50.790Z,5.40
2022-12-24T03:10:26.929Z,5.40
2022-12-24T03:13:02.775Z,5.40
2022-12-24T03:15:35.743Z,5.40
2022-12-24T03:18:11.507Z,5.40
2022-12-24T03:20:45.315Z,5.40
2022-12-24T03:23:17.705Z,5.40
2022-12-24T03:25:49.395Z,5.40
2022-12-24T03:28:22.089Z,5.40
2022-12-24T03:30:53.308Z,5.40
2022-12-24T03:33:27.209Z,5.40
2022-12-24T03:35:58.331Z,5.30
2022-12-24T03:38:29.562Z,5.40
2022-12-24T03:41:01.110Z,5.40
2022-12-24T03:43:32.599Z,5.30
2022-12-24T03:46:08.888Z,5.40
2022-12-24T03:48:43.017Z,5.30
2022-12-24T03:51:20.706Z,5.30
2022-12-24T03:53:51.969Z,5.30
2022-12-24T03:56:23.733Z,5.30
2022-12-24T03:58:54.882Z,5.30
2022-12-24T04:01:26.031Z,5.30
2022-12-24T04:03:59.718Z,5.30
2022-12-24T04:06:30.827Z,5.20
2022-12-24T04:09:05.284Z,5.20
2022-12-24T04:11:36.723Z,5.20
2022-12-24T04:14:07.749Z,5.20
2022-12-24T04:16:38.948Z,5.30
2022-12-24T04:19:13.372Z,5.30
2022-12-24T04:21:44.728Z,5.30
2022-12-24T04:24:15.137Z,5.20
2022-12-24T04:26:46.350Z,5.20
2022-12-24T04:29:16.931Z,5.20
2022-12-24T04:31:48.321Z,5.20
2022-12-24T04:34:22.156Z,5.10
2022-12-24T04:36:53.858Z,5.10
2022-12-24T04:39:24.624Z,5.10
2022-12-24T04:41:55.613Z,5.10
2022-12-24T04:44:26.451Z,5.10
2022-12-24T04:46:57.609Z,5.10
2022-12-24T04:49:31.759Z,5.10
2022-12-24T04:52:03.083Z,5.10
2022-12-24T04:54:33.873Z,5.00
2022-12-24T04:57:05.293Z,5.10
2022-12-24T04:59:36.304Z,5.10
2022-12-24T05:02:07.815Z,5.10
2022-12-24T05:04:41.268Z,5.10
2022-12-24T05:07:12.461Z,5.00
2022-12-24T05:09:43.629Z,5.00
2022-12-24T05:12:14.974Z,4.90
2022-12-24T05:14:45.771Z,4.80
2022-12-24T05:17:17.095Z,4.70
2022-12-24T05:19:51.220Z,4.70
2022-12-24T05:22:36.535Z,4.60
2022-12-24T05:25:19.908Z,4.60
2022-12-24T05:27:51.630Z,4.60
2022-12-24T05:30:22.791Z,4.60
2022-12-24T05:32:54.261Z,4.60
2022-12-24T05:35:28.361Z,4.60
2022-12-24T05:38:01.569Z,4.50
2022-12-24T05:40:32.539Z,4.50
2022-12-24T05:43:03.944Z,4.50
2022-12-24T05:45:36.003Z,4.40
2022-12-24T05:48:08.331Z,4.40
2022-12-24T05:50:43.288Z,4.30
2022-12-24T05:53:14.539Z,4.30
2022-12-24T05:55:45.023Z,4.20
2022-12-24T05:58:16.496Z,4.20
2022-12-24T06:00:47.942Z,4.20
2022-12-24T06:03:19.029Z,4.20
2022-12-24T06:06:00.293Z,4.20
2022-12-24T06:08:32.304Z,4.20
2022-12-24T06:11:05.934Z,4.20
2022-12-24T06:13:39.127Z,4.20
2022-12-24T06:16:12.204Z,4.10
2022-12-24T06:18:45.030Z,4.10
2022-12-24T06:21:19.912Z,4.00
2022-12-24T06:23:52.102Z,4.00
2022-12-24T06:26:25.736Z,4.00
2022-12-24T06:28:58.662Z,3.90
2022-12-24T06:31:30.252Z,3.90
2022-12-24T06:34:01.569Z,3.90
2022-12-24T06:36:34.685Z,3.90
2022-12-24T06:39:05.842Z,3.90
2022-12-24T06:41:37.323Z,3.80
2022-12-24T06:44:08.762Z,3.80
2022-12-24T06:46:39.644Z,3.80
2022-12-24T06:49:11.481Z,3.80
2022-12-24T06:51:45.399Z,3.70
2022-12-24T06:54:16.646Z,3.70
2022-12-24T06:56:47.155Z,3.60
2022-12-24T06:59:18.268Z,3.50
2022-12-24T07:01:49.300Z,3.50
2022-12-24T07:04:21.156Z,3.50
2022-12-24T07:06:55.490Z,3.40
2022-12-24T07:09:27.002Z,3.40
2022-12-24T07:11:58.367Z,3.40
2022-12-24T07:14:29.920Z,3.30
2022-12-24T07:17:01.881Z,3.30
2022-12-24T07:19:34.395Z,3.30
2022-12-24T07:22:15.058Z,3.20
2022-12-24T07:24:46.818Z,3.20
2022-12-24T07:27:18.398Z,3.20
2022-12-24T07:29:50.637Z,3.30
2022-12-24T07:32:21.975Z,3.20
2022-12-24T07:34:54.103Z,3.20
2022-12-24T07:37:28.141Z,3.20
2022-12-24T07:40:01.311Z,3.10
2022-12-24T07:42:32.949Z,3.20
2022-12-24T07:45:05.148Z,3.10
2022-12-24T07:47:37.372Z,3.20
2022-12-24T07:50:10.757Z,3.10
2022-12-24T07:52:44.646Z,3.10
2022-12-24T07:55:15.988Z,3.10
2022-12-24T07:57:46.745Z,3.10
2022-12-24T08:00:18.752Z,3.10
2022-12-24T08:02:50.067Z,3.20
2022-12-24T08:05:21.371Z,3.20
2022-12-24T08:07:54.926Z,3.20
2022-12-24T08:10:27.202Z,3.20
2022-12-24T08:13:01.323Z,3.20
2022-12-24T08:15:33.755Z,3.20
2022-12-24T08:18:05.315Z,3.20
2022-12-24T08:20:37.662Z,3.20
2022-12-24T08:23:12.474Z,3.20
2022-12-24T08:25:46.659Z,3.20
2022-12-24T08:28:21.027Z,3.20
2022-12-24T08:30:54.554Z,3.30
2022-12-24T08:33:26.087Z,3.30
2022-12-24T08:35:58.952Z,3.30
2022-12-24T08:38:33.450Z,3.40
2022-12-24T08:41:05.552Z,3.40
2022-12-24T08:43:36.799Z,3.40
2022-12-24T08:46:09.366Z,3.50
2022-12-24T08:48:40.949Z,3.50
2022-12-24T08:51:12.845Z,3.50
2022-12-24T08:53:46.247Z,3.50
2022-12-24T08:56:17.399Z,3.60
2022-12-24T08:58:49.009Z,3.60
2022-12-24T09:01:22.016Z,3.70
2022-12-24T09:03:53.394Z,3.70
2022-12-24T09:06:24.944Z,3.70
2022-12-24T09:09:00.073Z,3.70
2022-12-24T09:11:31.480Z,3.70
2022-12-24T09:14:02.819Z,3.70
2022-12-24T09:16:34.635Z,3.70
2022-12-24T09:19:05.931Z,3.70
2022-12-24T09:21:37.484Z,3.70
2022-12-24T09:24:11.494Z,3.80
2022-12-24T09:26:46.156Z,3.80
2022-12-24T09:29:19.613Z,3.80
2022-12-24T09:31:51.439Z,3.90
2022-12-24T09:34:29.992Z,3.90
2022-12-24T09:37:03.314Z,3.90
2022-12-24T09:39:37.392Z,3.90
2022-12-24T09:42:21.523Z,3.90
2022-12-24T09:45:00.422Z,3.90
2022-12-24T09:47:39.875Z,3.90
2022-12-24T09:50:29.584Z,3.90
2022-12-24T09:53:04.692Z,3.90
2022-12-24T09:55:44.082Z,3.90
2022-12-24T09:58:23.659Z,3.90
2022-12-24T10:00:55.585Z,4.00
2022-12-24T10:03:26.696Z,3.90
2022-12-24T10:06:09.551Z,3.90
2022-12-24T10:08:55.131Z,3.90
2022-12-24T10:11:39.389Z,3.90
2022-12-24T10:14:21.670Z,3.80
2022-12-24T10:17:01.389Z,3.90
2022-12-24T10:19:44.341Z,3.90
2022-12-24T10:22:26.928Z,3.80
2022-12-24T10:25:06.057Z,3.80
2022-12-24T10:27:42.673Z,3.80
2022-12-24T10:30:19.846Z,3.80
2022-12-24T10:32:53.876Z,3.80
2022-12-24T10:35:29.667Z,3.80
2022-12-24T10:38:00.404Z,3.80
2022-12-24T10:40:37.768Z,3.80
2022-12-24T10:43:17.785Z,3.80
2022-12-24T10:45:52.163Z,3.80
2022-12-24T10:48:31.149Z,3.80
2022-12-24T10:51:06.094Z,3.90
2022-12-24T10:53:43.795Z,3.90
2022-12-24T10:56:18.133Z,4.00
2022-12-24T10:58:57.374Z,4.00
2022-12-24T11:01:47.730Z,4.10
2022-12-24T11:04:20.998Z,4.10
2022-12-24T11:07:00.386Z,4.20
2022-12-24T11:09:33.759Z,4.10
2022-12-24T11:12:09.762Z,4.10
2022-12-24T11:14:43.437Z,4.10
2022-12-24T11:17:23.910Z,4.00
2022-12-24T11:19:54.998Z,3.90
2022-12-24T11:22:29.423Z,3.80
2022-12-24T11:25:05.191Z,3.70
2022-12-24T11:27:44.445Z,3.70
2022-12-24T11:30:26.721Z,3.60
2022-12-24T11:33:19.294Z,3.50
2022-12-24T11:35:54.780Z,3.40
2022-12-24T11:38:28.195Z,3.30
2022-12-24T11:41:08.668Z,3.40
2022-12-24T11:43:49.252Z,3.30
2022-12-24T11:46:40.286Z,3.20
2022-12-24T11:49:25.356Z,3.20
2022-12-24T11:52:26.823Z,3.20
2022-12-24T11:55:27.828Z,3.20
2022-12-24T11:58:04.030Z,3.20
2022-12-24T12:00:35.192Z,3.20
2022-12-24T12:03:22.245Z,3.20
2022-12-24T12:05:55.314Z,3.20
2022-12-24T12:08:29.301Z,3.20
2022-12-24T12:11:02.763Z,3.20
2022-12-24T12:13:38.223Z,3.20
2022-12-24T12:16:22.571Z,3.20
2022-12-24T12:19:01.651Z,3.30
2022-12-24T12:21:42.253Z,3.30
2022-12-24T12:24:20.099Z,3.30
2022-12-24T12:26:57.784Z,3.30
2022-12-24T12:29:34.229Z,3.30
2022-12-24T12:32:10.664Z,3.30
2022-12-24T12:34:48.528Z,3.30
2022-12-24T12:37:27.230Z,3.40
2022-12-24T12:39:58.519Z,3.40
2022-12-24T12:42:34.494Z,3.30
2022-12-24T12:45:28.332Z,3.40
2022-12-24T12:48:13.425Z,3.40
2022-12-24T12:50:53.865Z,3.40
2022-12-24T12:53:42.886Z,3.40
2022-12-24T12:56:24.963Z,3.40
2022-12-24T12:58:58.919Z,3.50
2022-12-24T13:01:43.147Z,3.50
2022-12-24T13:04:49.163Z,3.50
2022-12-24T13:07:47.169Z,3.50
2022-12-24T13:10:37.554Z,3.60
2022-12-24T13:13:37.059Z,3.60
2022-12-24T13:16:42.054Z,3.60
2022-12-24T13:19:31.564Z,3.60
2022-12-24T13:22:05.922Z,3.60
2022-12-24T13:24:40.392Z,3.60
2022-12-24T13:27:23.296Z,3.60
2022-12-24T13:30:03.638Z,3.60
2022-12-24T13:32:53.375Z,3.60
2022-12-24T13:35:38.270Z,3.60
2022-12-24T13:38:33.851Z,3.60
2022-12-24T13:41:39.405Z,3.60
2022-12-24T13:44:23.767Z,3.60
2022-12-24T13:47:00.790Z,3.60
2022-12-24T13:49:36.719Z,3.60
2022-12-24T13:52:30.400Z,3.60
2022-12-24T13:55:18.667Z,3.70
2022-12-24T13:57:58.799Z,3.70
2022-12-24T14:00:43.370Z,3.70
2022-12-24T14:03:29.036Z,3.60
2022-12-24T14:06:03.955Z,3.60
2022-12-24T14:08:40.470Z,3.60
2022-12-24T14:11:16.304Z,3.60
2022-12-24T14:14:17.313Z,3.60
2022-12-24T14:16:53.762Z,3.70
2022-12-24T14:19:33.678Z,3.60
2022-12-24T14:22:23.351Z,3.70
2022-12-24T14:24:59.634Z,3.70
2022-12-24T14:27:37.443Z,3.60
2022-12-24T14:30:11.900Z,3.60
2022-12-24T14:32:46.147Z,3.60
2022-12-24T14:35:23.683Z,3.60
2022-12-24T14:38:01.006Z,3.60
2022-12-24T14:40:35.594Z,3.60
2022-12-24T14:43:22.749Z,3.60
2022-12-24T14:46:02.616Z,3.50
2022-12-24T14:48:44.373Z,3.50
2022-12-24T14:51:22.813Z,3.40
2022-12-24T14:54:19.126Z,3.40
2022-12-24T14:56:50.157Z,3.40
2022-12-24T14:59:25.206Z,3.40
2022-12-24T15:01:56.516Z,3.30
2022-12-24T15:04:31.203Z,3.30
2022-12-24T15:07:05.395Z,3.40
2022-12-24T15:09:41.075Z,3.40
2022-12-24T15:12:15.783Z,3.40
2022-12-24T15:14:48.853Z,3.40
2022-12-24T15:17:20.809Z,3.40
2022-12-24T15:19:58.404Z,3.40
2022-12-24T15:22:33.144Z,3.40
2022-12-24T15:25:04.909Z,3.40
2022-12-24T15:27:42.418Z,3.40
2022-12-24T15:30:18.837Z,3.40
2022-12-24T15:32:50.719Z,3.30
2022-12-24T15:35:51.455Z,3.20
2022-12-24T15:38:30.120Z,3.10
2022-12-24T15:41:02.201Z,3.10
2022-12-24T15:43:34.888Z,3.10
2022-12-24T15:46:06.553Z,3.10
2022-12-24T15:48:39.935Z,3.10
2022-12-24T15:51:14.521Z,3.10
2022-12-24T15:53:49.454Z,3.20
2022-12-24T15:56:34.658Z,3.20
2022-12-24T15:59:31.520Z,3.20
2022-12-24T16:02:38.770Z,3.20
2022-12-24T16:05:37.007Z,3.30
2022-12-24T16:08:31.791Z,3.30
2022-12-24T16:11:19.183Z,3.30
2022-12-24T16:14:07.496Z,3.30
2022-12-24T16:16:41.920Z,3.30
2022-12-24T16:19:21.481Z,3.30
2022-12-24T16:21:57.232Z,3.30
2022-12-24T16:24:34.328Z,3.30
2022-12-24T16:27:05.850Z,3.30
2022-12-24T16:29:37.334Z,3.30
2022-12-24T16:32:10.804Z,3.30
2022-12-24T16:34:42.942Z,3.30
2022-12-24T16:37:15.066Z,3.30
2022-12-24T16:39:51.097Z,3.30
2022-12-24T16:42:34.778Z,3.20
2022-12-24T16:45:08.683Z,3.20
2022-12-24T16:51:49.919Z,3.10
2022-12-24T16:54:22.932Z,3.10
2022-12-24T16:57:00.190Z,3.10
2022-12-24T16:59:33.084Z,3.10
2022-12-24T17:02:12.565Z,3.10
2022-12-24T17:04:47.143Z,3.10
2022-12-24T17:07:22.932Z,3.10
2022-12-24T17:09:56.244Z,3.10
2022-12-24T17:12:27.939Z,3.10
2022-12-24T17:14:59.321Z,3.10
2022-12-24T17:17:33.070Z,3.10
2022-12-24T17:20:05.386Z,3.10
2022-12-24T17:22:39.627Z,3.10
2022-12-24T17:25:13.771Z,3.10
2022-12-24T17:27:45.401Z,3.10
2022-12-24T17:30:18.173Z,3.10
2022-12-24T17:32:49.664Z,3.10
2022-12-24T17:35:24.081Z,3.00
2022-12-24T17:37:58.213Z,3.00
2022-12-24T17:40:33.570Z,3.00
2022-12-24T17:43:05.297Z,3.00
2022-12-24T17:45:36.730Z,3.00
2022-12-24T17:48:08.931Z,3.00
2022-12-24T17:50:42.569Z,3.00
2022-12-24T17:53:16.548Z,2.90
2022-12-24T17:55:48.071Z,2.90
2022-12-24T17:58:18.843Z,2.90
2022-12-24T18:00:52.726Z,2.90
2022-12-24T18:03:23.812Z,2.90
2022-12-24T18:05:55.290Z,2.90
2022-12-24T18:08:29.001Z,2.90
2022-12-24T18:11:00.165Z,2.80
2022-12-24T18:13:30.901Z,2.90
2022-12-24T18:16:02.222Z,2.90
2022-12-24T18:18:32.609Z,2.90
2022-12-24T18:21:05.419Z,2.90
2022-12-24T18:23:39.020Z,2.90
2022-12-24T18:26:10.598Z,2.90
2022-12-24T18:28:42.330Z,3.00
2022-12-24T18:31:17.705Z,2.90
2022-12-24T18:33:51.873Z,2.90
2022-12-24T18:36:23.937Z,2.90
2022-12-24T18:38:57.844Z,2.90
2022-12-24T18:41:30.687Z,2.90
2022-12-24T18:44:02.546Z,2.90
2022-12-24T18:46:36.032Z,2.90
2022-12-24T18:49:07.061Z,2.90
2022-12-24T18:51:38.608Z,2.90
2022-12-24T18:54:12.616Z,2.90
2022-12-24T18:56:43.978Z,2.90
2022-12-24T18:59:14.770Z,3.00
2022-12-24T19:01:47.136Z,3.00
2022-12-24T19:04:21.801Z,3.00
2022-12-24T19:06:54.008Z,2.90
2022-12-24T19:09:27.564Z,2.90
2022-12-24T19:11:59.217Z,2.80
2022-12-24T19:14:30.606Z,2.80
2022-12-24T19:17:02.307Z,2.80
2022-12-24T19:19:33.049Z,2.80
2022-12-24T19:22:04.381Z,2.80
2022-12-24T19:24:38.535Z,2.80
2022-12-24T19:27:09.966Z,2.80
2022-12-24T19:29:41.477Z,2.80
2022-12-24T19:32:13.092Z,2.80
2022-12-24T19:34:44.702Z,2.80
2022-12-24T19:37:16.590Z,2.80
2022-12-24T19:39:50.452Z,2.80
2022-12-24T19:42:21.811Z,2.80
2022-12-24T19:44:52.208Z,2.80
2022-12-24T19:47:24.012Z,2.80
2022-12-24T19:49:54.936Z,2.80
2022-12-24T19:52:26.297Z,2.80
2022-12-24T19:55:00.421Z,2.80
2022-12-24T19:57:31.836Z,2.70
2022-12-24T20:00:02.701Z,2.70
2022-12-24T20:02:43.545Z,2.70
2022-12-24T20:05:14.335Z,2.70
2022-12-24T20:07:46.256Z,2.70
2022-12-24T20:10:20.973Z,2.70
2022-12-24T20:12:52.593Z,2.70
2022-12-24T20:15:23.461Z,2.70
2022-12-24T20:17:54.915Z,2.70
2022-12-24T20:20:26.529Z,2.70
2022-12-24T20:22:58.025Z,2.80
2022-12-24T20:25:32.260Z,2.80
2022-12-24T20:28:03.671Z,2.80
2022-12-24T20:30:34.927Z,2.80
2022-12-24T20:33:06.922Z,2.70
2022-12-24T20:35:38.524Z,2.80
2022-12-24T20:38:10.021Z,2.80
2022-12-24T20:40:47.411Z,2.80
2022-12-24T20:43:24.069Z,2.80
2022-12-24T20:45:56.382Z,2.80
2022-12-24T20:48:28.955Z,2.80
2022-12-24T20:51:01.935Z,2.80
2022-12-24T20:53:33.983Z,2.70
2022-12-24T20:56:08.843Z,2.70
2022-12-24T20:58:39.965Z,2.70
2022-12-24T21:01:14.420Z,2.70
2022-12-24T21:03:46.008Z,2.80
2022-12-24T21:06:19.656Z,2.80
2022-12-24T21:08:52.946Z,2.80
2022-12-24T21:11:39.080Z,2.80
2022-12-24T21:14:11.000Z,2.80
2022-12-24T21:16:45.287Z,2.80
2022-12-24T21:19:19.595Z,2.70
2022-12-24T21:21:50.507Z,2.70
2022-12-24T21:24:22.263Z,2.80
2022-12-24T21:26:55.672Z,2.80
2022-12-24T21:29:27.537Z,2.70
2022-12-24T21:31:59.291Z,2.70
2022-12-24T21:34:30.866Z,2.70
2022-12-24T21:37:01.591Z,2.70
2022-12-24T21:39:32.823Z,2.70
2022-12-24T21:42:06.681Z,2.60
2022-12-24T21:44:39.150Z,2.60
2022-12-24T21:47:11.196Z,2.70
2022-12-24T21:49:55.996Z,2.70
2022-12-24T21:52:27.417Z,2.70
2022-12-24T21:54:57.313Z,2.80
2022-12-24T21:57:43.201Z,2.70
2022-12-24T22:00:27.148Z,2.70
2022-12-24T22:03:01.658Z,2.70
2022-12-24T22:05:36.538Z,2.70
2022-12-24T22:08:20.320Z,2.70
2022-12-24T22:11:05.348Z,2.70
2022-12-24T22:13:39.440Z,2.70
2022-12-24T22:16:15.311Z,2.70
2022-12-24T22:18:46.429Z,2.70
2022-12-24T22:21:18.163Z,2.70
2022-12-24T22:23:49.734Z,2.70
2022-12-24T22:26:21.819Z,2.70
2022-12-24T22:28:55.358Z,2.60
2022-12-24T22:31:27.561Z,2.60
2022-12-24T22:33:59.246Z,2.70
2022-12-24T22:36:30.851Z,2.80
2022-12-24T22:39:01.882Z,2.70
2022-12-24T22:41:34.138Z,2.80
2022-12-24T22:44:07.909Z,2.70
2022-12-24T22:46:39.367Z,2.70
2022-12-24T22:49:10.874Z,2.70
2022-12-24T22:51:42.639Z,2.70
2022-12-24T22:54:14.046Z,2.70
2022-12-24T22:56:45.696Z,2.70
2022-12-24T22:59:19.887Z,2.70
2022-12-24T23:01:53.088Z,2.60
2022-12-24T23:04:24.580Z,2.60
2022-12-24T23:06:55.966Z,2.60
2022-12-24T23:09:27.526Z,2.70
2022-12-24T23:11:59.041Z,2.70
2022-12-24T23:14:45.695Z,2.70
2022-12-24T23:17:17.839Z,2.60
2022-12-24T23:19:49.448Z,2.70
2022-12-24T23:22:22.587Z,2.70
2022-12-24T23:24:53.883Z,2.60
2022-12-24T23:27:25.477Z,2.60
2022-12-24T23:29:59.776Z,2.60
2022-12-24T23:32:31.013Z,2.60
2022-12-24T23:35:02.955Z,2.60
2022-12-24T23:37:35.656Z,2.50
2022-12-24T23:40:06.839Z,2.50
2022-12-24T23:42:38.109Z,2.50
2022-12-24T23:45:12.810Z,2.60
2022-12-24T23:47:44.509Z,2.60
2022-12-24T23:50:15.391Z,2.70
2022-12-24T23:52:46.772Z,2.70
2022-12-24T23:55:18.498Z,2.70
2022-12-24T23:57:49.846Z,2.60
